sensor_id;sensor_type;location;lat;lon;timestamp;P1;durP1;ratioP1;P2;durP2;ratioP2
20110;SDS011;10216;42.658;23.248;2023-07-20T00:01:28;5.80;;;2.67;;
20110;SDS011;10216;42.658;23.248;2023-07-20T00:03:54;10.40;;;3.40;;
20110;SDS011;10216;42.658;23.248;2023-07-20T00:06:22;9.17;;;2.60;;
20110;SDS011;10216;42.658;23.248;2023-07-20T00:08:49;7.13;;;2.83;;
20110;SDS011;10216;42.658;23.248;2023-07-20T00:11:15;7.03;;;2.80;;
20110;SDS011;10216;42.658;23.248;2023-07-20T00:13:41;5.87;;;2.73;;
20110;SDS011;10216;42.658;23.248;2023-07-20T00:16:06;8.63;;;2.67;;
20110;SDS011;10216;42.658;23.248;2023-07-20T00:18:32;9.10;;;2.73;;
20110;SDS011;10216;42.658;23.248;2023-07-20T00:20:57;6.40;;;2.63;;
20110;SDS011;10216;42.658;23.248;2023-07-20T00:23:24;6.23;;;3.03;;
20110;SDS011;10216;42.658;23.248;2023-07-20T00:25:50;7.07;;;2.80;;
20110;SDS011;10216;42.658;23.248;2023-07-20T00:28:16;5.77;;;2.80;;
20110;SDS011;10216;42.658;23.248;2023-07-20T00:30:41;6.57;;;2.83;;
20110;SDS011;10216;42.658;23.248;2023-07-20T00:33:09;11.33;;;2.93;;
20110;SDS011;10216;42.658;23.248;2023-07-20T00:35:36;7.80;;;2.53;;
20110;SDS011;10216;42.658;23.248;2023-07-20T00:38:02;6.90;;;2.63;;
20110;SDS011;10216;42.658;23.248;2023-07-20T00:40:28;7.97;;;3.13;;
20110;SDS011;10216;42.658;23.248;2023-07-20T00:42:53;5.80;;;2.80;;
20110;SDS011;10216;42.658;23.248;2023-07-20T00:45:19;7.27;;;2.73;;
20110;SDS011;10216;42.658;23.248;2023-07-20T00:47:44;8.17;;;2.73;;
20110;SDS011;10216;42.658;23.248;2023-07-20T00:50:10;7.13;;;3.00;;
20110;SDS011;10216;42.658;23.248;2023-07-20T00:52:35;6.43;;;2.83;;
20110;SDS011;10216;42.658;23.248;2023-07-20T00:55:04;9.00;;;2.47;;
20110;SDS011;10216;42.658;23.248;2023-07-20T00:57:31;5.40;;;2.53;;
20110;SDS011;10216;42.658;23.248;2023-07-20T00:59:57;5.83;;;2.80;;
20110;SDS011;10216;42.658;23.248;2023-07-20T01:02:23;6.57;;;2.70;;
20110;SDS011;10216;42.658;23.248;2023-07-20T01:04:48;5.47;;;2.97;;
20110;SDS011;10216;42.658;23.248;2023-07-20T01:07:21;6.97;;;3.00;;
20110;SDS011;10216;42.658;23.248;2023-07-20T01:12:43;5.17;;;2.53;;
20110;SDS011;10216;42.658;23.248;2023-07-20T01:15:11;7.93;;;2.90;;
20110;SDS011;10216;42.658;23.248;2023-07-20T01:17:37;12.20;;;3.57;;
20110;SDS011;10216;42.658;23.248;2023-07-20T01:20:03;10.20;;;2.80;;
20110;SDS011;10216;42.658;23.248;2023-07-20T01:22:53;6.40;;;2.83;;
20110;SDS011;10216;42.658;23.248;2023-07-20T01:33:26;6.63;;;2.50;;
20110;SDS011;10216;42.658;23.248;2023-07-20T01:35:55;7.20;;;3.10;;
20110;SDS011;10216;42.658;23.248;2023-07-20T01:38:23;6.80;;;2.73;;
20110;SDS011;10216;42.658;23.248;2023-07-20T01:40:50;6.90;;;3.17;;
20110;SDS011;10216;42.658;23.248;2023-07-20T01:43:16;6.33;;;2.70;;
20110;SDS011;10216;42.658;23.248;2023-07-20T01:45:42;6.03;;;2.87;;
20110;SDS011;10216;42.658;23.248;2023-07-20T01:48:08;5.53;;;2.90;;
20110;SDS011;10216;42.658;23.248;2023-07-20T01:50:34;5.63;;;2.70;;
20110;SDS011;10216;42.658;23.248;2023-07-20T01:52:59;7.77;;;2.60;;
20110;SDS011;10216;42.658;23.248;2023-07-20T01:55:25;9.53;;;3.20;;
20110;SDS011;10216;42.658;23.248;2023-07-20T01:57:50;8.30;;;3.30;;
20110;SDS011;10216;42.658;23.248;2023-07-20T02:00:16;9.50;;;3.23;;
20110;SDS011;10216;42.658;23.248;2023-07-20T02:02:44;8.47;;;3.20;;
20110;SDS011;10216;42.658;23.248;2023-07-20T02:05:09;7.67;;;3.67;;
20110;SDS011;10216;42.658;23.248;2023-07-20T02:07:34;10.37;;;3.10;;
20110;SDS011;10216;42.658;23.248;2023-07-20T02:10:00;8.67;;;2.90;;
20110;SDS011;10216;42.658;23.248;2023-07-20T02:12:25;5.57;;;2.67;;
20110;SDS011;10216;42.658;23.248;2023-07-20T02:14:50;8.73;;;3.53;;
20110;SDS011;10216;42.658;23.248;2023-07-20T02:17:16;6.80;;;3.03;;
20110;SDS011;10216;42.658;23.248;2023-07-20T02:19:42;9.50;;;3.17;;
20110;SDS011;10216;42.658;23.248;2023-07-20T02:22:07;9.87;;;3.40;;
20110;SDS011;10216;42.658;23.248;2023-07-20T02:24:33;7.60;;;3.37;;
20110;SDS011;10216;42.658;23.248;2023-07-20T02:26:59;8.63;;;3.30;;
20110;SDS011;10216;42.658;23.248;2023-07-20T02:29:24;4.77;;;2.93;;
20110;SDS011;10216;42.658;23.248;2023-07-20T02:31:50;7.37;;;2.77;;
20110;SDS011;10216;42.658;23.248;2023-07-20T02:34:15;11.73;;;3.30;;
20110;SDS011;10216;42.658;23.248;2023-07-20T02:36:40;8.80;;;3.43;;
20110;SDS011;10216;42.658;23.248;2023-07-20T02:39:07;9.27;;;3.50;;
20110;SDS011;10216;42.658;23.248;2023-07-20T02:41:33;7.47;;;3.20;;
20110;SDS011;10216;42.658;23.248;2023-07-20T02:43:59;6.90;;;3.20;;
20110;SDS011;10216;42.658;23.248;2023-07-20T02:46:25;7.87;;;3.17;;
20110;SDS011;10216;42.658;23.248;2023-07-20T02:48:50;9.30;;;3.37;;
20110;SDS011;10216;42.658;23.248;2023-07-20T02:51:15;7.53;;;3.07;;
20110;SDS011;10216;42.658;23.248;2023-07-20T02:53:41;8.23;;;3.17;;
20110;SDS011;10216;42.658;23.248;2023-07-20T02:56:06;8.30;;;3.20;;
20110;SDS011;10216;42.658;23.248;2023-07-20T02:58:33;7.97;;;3.03;;
20110;SDS011;10216;42.658;23.248;2023-07-20T03:01:02;5.87;;;3.20;;
20110;SDS011;10216;42.658;23.248;2023-07-20T03:03:28;8.63;;;3.30;;
20110;SDS011;10216;42.658;23.248;2023-07-20T03:05:53;7.57;;;3.17;;
20110;SDS011;10216;42.658;23.248;2023-07-20T03:08:20;7.77;;;3.30;;
20110;SDS011;10216;42.658;23.248;2023-07-20T03:10:46;8.37;;;3.37;;
20110;SDS011;10216;42.658;23.248;2023-07-20T03:13:11;5.87;;;3.00;;
20110;SDS011;10216;42.658;23.248;2023-07-20T03:15:37;6.50;;;3.27;;
20110;SDS011;10216;42.658;23.248;2023-07-20T03:18:03;7.17;;;3.50;;
20110;SDS011;10216;42.658;23.248;2023-07-20T03:20:29;7.83;;;3.20;;
20110;SDS011;10216;42.658;23.248;2023-07-20T03:22:54;7.07;;;3.30;;
20110;SDS011;10216;42.658;23.248;2023-07-20T03:25:19;7.40;;;3.40;;
20110;SDS011;10216;42.658;23.248;2023-07-20T03:27:46;8.87;;;4.00;;
20110;SDS011;10216;42.658;23.248;2023-07-20T03:30:11;12.37;;;3.90;;
20110;SDS011;10216;42.658;23.248;2023-07-20T03:32:37;7.13;;;3.60;;
20110;SDS011;10216;42.658;23.248;2023-07-20T03:35:02;8.47;;;3.67;;
20110;SDS011;10216;42.658;23.248;2023-07-20T03:37:28;9.67;;;3.67;;
20110;SDS011;10216;42.658;23.248;2023-07-20T03:39:53;8.30;;;3.23;;
20110;SDS011;10216;42.658;23.248;2023-07-20T03:42:18;11.23;;;3.50;;
20110;SDS011;10216;42.658;23.248;2023-07-20T03:44:44;9.30;;;3.70;;
20110;SDS011;10216;42.658;23.248;2023-07-20T03:47:09;9.80;;;3.53;;
20110;SDS011;10216;42.658;23.248;2023-07-20T03:49:35;8.97;;;3.87;;
20110;SDS011;10216;42.658;23.248;2023-07-20T03:52:00;9.70;;;3.60;;
20110;SDS011;10216;42.658;23.248;2023-07-20T03:54:28;7.97;;;3.10;;
20110;SDS011;10216;42.658;23.248;2023-07-20T03:56:53;5.90;;;3.13;;
20110;SDS011;10216;42.658;23.248;2023-07-20T03:59:19;9.13;;;4.07;;
20110;SDS011;10216;42.658;23.248;2023-07-20T04:01:45;6.50;;;3.47;;
20110;SDS011;10216;42.658;23.248;2023-07-20T04:04:10;8.43;;;3.13;;
20110;SDS011;10216;42.658;23.248;2023-07-20T04:06:35;6.53;;;3.10;;
20110;SDS011;10216;42.658;23.248;2023-07-20T04:09:01;5.97;;;3.20;;
20110;SDS011;10216;42.658;23.248;2023-07-20T04:11:26;7.93;;;3.50;;
20110;SDS011;10216;42.658;23.248;2023-07-20T04:13:52;7.77;;;3.40;;
20110;SDS011;10216;42.658;23.248;2023-07-20T04:16:17;7.17;;;3.77;;
20110;SDS011;10216;42.658;23.248;2023-07-20T04:18:42;6.80;;;3.83;;
20110;SDS011;10216;42.658;23.248;2023-07-20T04:21:08;8.73;;;3.80;;
20110;SDS011;10216;42.658;23.248;2023-07-20T04:23:34;6.10;;;3.53;;
20110;SDS011;10216;42.658;23.248;2023-07-20T04:26:00;9.53;;;3.90;;
20110;SDS011;10216;42.658;23.248;2023-07-20T04:28:26;11.67;;;4.40;;
20110;SDS011;10216;42.658;23.248;2023-07-20T04:30:52;11.20;;;3.70;;
20110;SDS011;10216;42.658;23.248;2023-07-20T04:33:17;9.70;;;3.87;;
20110;SDS011;10216;42.658;23.248;2023-07-20T04:35:47;10.87;;;3.90;;
20110;SDS011;10216;42.658;23.248;2023-07-20T04:38:19;9.60;;;3.90;;
20110;SDS011;10216;42.658;23.248;2023-07-20T04:40:45;9.10;;;3.53;;
20110;SDS011;10216;42.658;23.248;2023-07-20T04:43:16;12.07;;;3.83;;
20110;SDS011;10216;42.658;23.248;2023-07-20T04:45:42;12.30;;;3.73;;
20110;SDS011;10216;42.658;23.248;2023-07-20T04:48:11;12.10;;;3.50;;
20110;SDS011;10216;42.658;23.248;2023-07-20T04:50:41;12.17;;;3.50;;
20110;SDS011;10216;42.658;23.248;2023-07-20T04:53:13;9.23;;;3.50;;
20110;SDS011;10216;42.658;23.248;2023-07-20T04:55:39;9.93;;;3.30;;
20110;SDS011;10216;42.658;23.248;2023-07-20T04:58:05;10.17;;;3.30;;
20110;SDS011;10216;42.658;23.248;2023-07-20T05:00:34;7.00;;;3.13;;
20110;SDS011;10216;42.658;23.248;2023-07-20T05:03:00;10.13;;;4.13;;
20110;SDS011;10216;42.658;23.248;2023-07-20T05:05:26;9.33;;;4.17;;
20110;SDS011;10216;42.658;23.248;2023-07-20T05:07:51;7.50;;;3.33;;
20110;SDS011;10216;42.658;23.248;2023-07-20T05:10:17;9.40;;;3.40;;
20110;SDS011;10216;42.658;23.248;2023-07-20T05:12:42;9.40;;;3.10;;
20110;SDS011;10216;42.658;23.248;2023-07-20T05:15:08;12.03;;;3.73;;
20110;SDS011;10216;42.658;23.248;2023-07-20T05:17:34;8.10;;;3.80;;
20110;SDS011;10216;42.658;23.248;2023-07-20T05:19:59;11.57;;;4.13;;
20110;SDS011;10216;42.658;23.248;2023-07-20T05:22:24;13.47;;;4.00;;
20110;SDS011;10216;42.658;23.248;2023-07-20T05:24:50;11.23;;;3.83;;
20110;SDS011;10216;42.658;23.248;2023-07-20T05:27:15;13.10;;;3.63;;
20110;SDS011;10216;42.658;23.248;2023-07-20T05:29:45;13.60;;;3.90;;
20110;SDS011;10216;42.658;23.248;2023-07-20T05:32:11;13.17;;;4.23;;
20110;SDS011;10216;42.658;23.248;2023-07-20T05:34:36;12.67;;;4.30;;
20110;SDS011;10216;42.658;23.248;2023-07-20T05:37:02;13.50;;;4.10;;
20110;SDS011;10216;42.658;23.248;2023-07-20T05:39:27;10.70;;;3.73;;
20110;SDS011;10216;42.658;23.248;2023-07-20T05:41:52;13.83;;;4.27;;
20110;SDS011;10216;42.658;23.248;2023-07-20T05:44:18;13.23;;;3.83;;
20110;SDS011;10216;42.658;23.248;2023-07-20T05:46:43;14.03;;;3.60;;
20110;SDS011;10216;42.658;23.248;2023-07-20T05:49:09;13.93;;;3.83;;
20110;SDS011;10216;42.658;23.248;2023-07-20T05:51:34;12.30;;;4.00;;
20110;SDS011;10216;42.658;23.248;2023-07-20T05:54:00;10.03;;;3.70;;
20110;SDS011;10216;42.658;23.248;2023-07-20T05:56:25;13.40;;;4.13;;
20110;SDS011;10216;42.658;23.248;2023-07-20T05:58:51;13.87;;;4.03;;
20110;SDS011;10216;42.658;23.248;2023-07-20T06:01:16;13.70;;;3.93;;
20110;SDS011;10216;42.658;23.248;2023-07-20T06:03:43;17.97;;;4.03;;
20110;SDS011;10216;42.658;23.248;2023-07-20T06:06:09;10.40;;;3.67;;
20110;SDS011;10216;42.658;23.248;2023-07-20T06:08:36;12.33;;;4.10;;
20110;SDS011;10216;42.658;23.248;2023-07-20T06:11:02;11.80;;;3.97;;
20110;SDS011;10216;42.658;23.248;2023-07-20T06:13:27;11.53;;;4.00;;
20110;SDS011;10216;42.658;23.248;2023-07-20T06:15:53;10.07;;;3.50;;
20110;SDS011;10216;42.658;23.248;2023-07-20T06:18:18;8.40;;;3.60;;
20110;SDS011;10216;42.658;23.248;2023-07-20T06:20:49;9.77;;;3.50;;
20110;SDS011;10216;42.658;23.248;2023-07-20T06:23:20;10.73;;;3.57;;
20110;SDS011;10216;42.658;23.248;2023-07-20T06:25:46;8.13;;;3.67;;
20110;SDS011;10216;42.658;23.248;2023-07-20T06:28:12;16.83;;;4.33;;
20110;SDS011;10216;42.658;23.248;2023-07-20T06:30:37;9.30;;;3.60;;
20110;SDS011;10216;42.658;23.248;2023-07-20T06:33:03;10.73;;;3.90;;
20110;SDS011;10216;42.658;23.248;2023-07-20T06:35:28;8.37;;;3.63;;
20110;SDS011;10216;42.658;23.248;2023-07-20T06:37:54;8.47;;;3.70;;
20110;SDS011;10216;42.658;23.248;2023-07-20T06:40:19;12.73;;;4.20;;
20110;SDS011;10216;42.658;23.248;2023-07-20T06:42:44;11.10;;;3.80;;
20110;SDS011;10216;42.658;23.248;2023-07-20T06:45:10;10.70;;;3.77;;
20110;SDS011;10216;42.658;23.248;2023-07-20T06:47:37;13.02;;;4.18;;
20110;SDS011;10216;42.658;23.248;2023-07-20T06:50:04;12.63;;;4.03;;
20110;SDS011;10216;42.658;23.248;2023-07-20T06:52:31;10.27;;;4.20;;
20110;SDS011;10216;42.658;23.248;2023-07-20T06:54:56;8.30;;;3.72;;
20110;SDS011;10216;42.658;23.248;2023-07-20T06:57:22;11.20;;;3.90;;
20110;SDS011;10216;42.658;23.248;2023-07-20T06:59:47;9.85;;;3.88;;
20110;SDS011;10216;42.658;23.248;2023-07-20T07:02:13;12.82;;;4.18;;
20110;SDS011;10216;42.658;23.248;2023-07-20T07:04:39;9.80;;;3.72;;
20110;SDS011;10216;42.658;23.248;2023-07-20T07:07:04;9.55;;;3.60;;
20110;SDS011;10216;42.658;23.248;2023-07-20T07:09:30;14.32;;;3.90;;
20110;SDS011;10216;42.658;23.248;2023-07-20T07:11:55;13.32;;;3.97;;
20110;SDS011;10216;42.658;23.248;2023-07-20T07:14:20;8.77;;;3.78;;
20110;SDS011;10216;42.658;23.248;2023-07-20T07:16:46;9.95;;;3.30;;
20110;SDS011;10216;42.658;23.248;2023-07-20T07:19:12;10.43;;;3.90;;
20110;SDS011;10216;42.658;23.248;2023-07-20T07:21:38;10.95;;;4.35;;
20110;SDS011;10216;42.658;23.248;2023-07-20T07:24:04;12.38;;;4.40;;
20110;SDS011;10216;42.658;23.248;2023-07-20T07:26:32;7.00;;;3.85;;
20110;SDS011;10216;42.658;23.248;2023-07-20T07:28:57;11.70;;;4.65;;
20110;SDS011;10216;42.658;23.248;2023-07-20T07:31:24;14.88;;;4.55;;
20110;SDS011;10216;42.658;23.248;2023-07-20T07:33:50;10.88;;;4.05;;
20110;SDS011;10216;42.658;23.248;2023-07-20T07:36:15;11.25;;;4.10;;
20110;SDS011;10216;42.658;23.248;2023-07-20T07:38:41;9.43;;;4.13;;
20110;SDS011;10216;42.658;23.248;2023-07-20T07:41:06;11.35;;;4.30;;
20110;SDS011;10216;42.658;23.248;2023-07-20T07:43:32;11.40;;;4.47;;
20110;SDS011;10216;42.658;23.248;2023-07-20T07:45:58;11.10;;;3.97;;
20110;SDS011;10216;42.658;23.248;2023-07-20T07:48:23;9.75;;;4.18;;
20110;SDS011;10216;42.658;23.248;2023-07-20T07:50:50;14.65;;;4.53;;
20110;SDS011;10216;42.658;23.248;2023-07-20T07:53:16;10.05;;;3.80;;
20110;SDS011;10216;42.658;23.248;2023-07-20T07:55:41;12.15;;;3.95;;
20110;SDS011;10216;42.658;23.248;2023-07-20T07:58:07;13.88;;;4.22;;
20110;SDS011;10216;42.658;23.248;2023-07-20T08:00:32;11.48;;;4.03;;
20110;SDS011;10216;42.658;23.248;2023-07-20T08:02:57;10.93;;;4.00;;
20110;SDS011;10216;42.658;23.248;2023-07-20T08:05:23;7.90;;;3.95;;
20110;SDS011;10216;42.658;23.248;2023-07-20T08:07:49;12.90;;;4.32;;
20110;SDS011;10216;42.658;23.248;2023-07-20T08:10:14;18.90;;;4.22;;
20110;SDS011;10216;42.658;23.248;2023-07-20T08:12:40;15.70;;;3.72;;
20110;SDS011;10216;42.658;23.248;2023-07-20T08:15:05;11.23;;;3.75;;
20110;SDS011;10216;42.658;23.248;2023-07-20T08:17:31;15.95;;;3.92;;
20110;SDS011;10216;42.658;23.248;2023-07-20T08:19:56;9.25;;;3.00;;
20110;SDS011;10216;42.658;23.248;2023-07-20T08:22:22;8.00;;;2.92;;
20110;SDS011;10216;42.658;23.248;2023-07-20T08:24:47;6.82;;;2.75;;
20110;SDS011;10216;42.658;23.248;2023-07-20T08:27:12;11.35;;;3.47;;
20110;SDS011;10216;42.658;23.248;2023-07-20T08:29:38;8.35;;;2.47;;
20110;SDS011;10216;42.658;23.248;2023-07-20T08:32:04;7.88;;;2.78;;
20110;SDS011;10216;42.658;23.248;2023-07-20T08:34:31;6.50;;;2.67;;
20110;SDS011;10216;42.658;23.248;2023-07-20T08:36:56;9.82;;;2.67;;
20110;SDS011;10216;42.658;23.248;2023-07-20T08:39:22;9.07;;;2.80;;
20110;SDS011;10216;42.658;23.248;2023-07-20T08:41:49;8.77;;;2.58;;
20110;SDS011;10216;42.658;23.248;2023-07-20T08:44:15;5.82;;;2.80;;
20110;SDS011;10216;42.658;23.248;2023-07-20T08:46:41;11.05;;;2.67;;
20110;SDS011;10216;42.658;23.248;2023-07-20T08:49:08;10.32;;;2.95;;
20110;SDS011;10216;42.658;23.248;2023-07-20T08:51:35;7.45;;;2.65;;
20110;SDS011;10216;42.658;23.248;2023-07-20T08:54:01;10.68;;;2.22;;
20110;SDS011;10216;42.658;23.248;2023-07-20T08:56:26;9.38;;;2.70;;
20110;SDS011;10216;42.658;23.248;2023-07-20T08:58:53;7.43;;;2.65;;
20110;SDS011;10216;42.658;23.248;2023-07-20T09:01:19;9.80;;;2.45;;
20110;SDS011;10216;42.658;23.248;2023-07-20T09:03:45;11.00;;;2.80;;
20110;SDS011;10216;42.658;23.248;2023-07-20T09:06:11;8.98;;;2.80;;
20110;SDS011;10216;42.658;23.248;2023-07-20T09:08:40;6.10;;;2.63;;
20110;SDS011;10216;42.658;23.248;2023-07-20T09:11:06;7.03;;;2.53;;
20110;SDS011;10216;42.658;23.248;2023-07-20T09:13:33;8.23;;;2.50;;
20110;SDS011;10216;42.658;23.248;2023-07-20T09:15:59;10.40;;;2.75;;
20110;SDS011;10216;42.658;23.248;2023-07-20T09:18:25;7.22;;;2.40;;
20110;SDS011;10216;42.658;23.248;2023-07-20T09:20:52;10.60;;;2.50;;
20110;SDS011;10216;42.658;23.248;2023-07-20T09:23:19;7.30;;;2.80;;
20110;SDS011;10216;42.658;23.248;2023-07-20T09:25:44;8.20;;;2.50;;
20110;SDS011;10216;42.658;23.248;2023-07-20T09:28:15;8.30;;;2.80;;
20110;SDS011;10216;42.658;23.248;2023-07-20T09:30:41;7.53;;;2.28;;
20110;SDS011;10216;42.658;23.248;2023-07-20T09:33:06;8.88;;;2.53;;
20110;SDS011;10216;42.658;23.248;2023-07-20T09:35:43;10.25;;;2.65;;
20110;SDS011;10216;42.658;23.248;2023-07-20T09:38:08;6.75;;;2.42;;
20110;SDS011;10216;42.658;23.248;2023-07-20T09:40:37;7.63;;;2.60;;
20110;SDS011;10216;42.658;23.248;2023-07-20T09:43:04;8.45;;;2.75;;
20110;SDS011;10216;42.658;23.248;2023-07-20T09:45:34;7.25;;;2.45;;
20110;SDS011;10216;42.658;23.248;2023-07-20T09:48:09;6.93;;;2.72;;
20110;SDS011;10216;42.658;23.248;2023-07-20T09:50:39;5.85;;;2.17;;
20110;SDS011;10216;42.658;23.248;2023-07-20T09:53:12;5.63;;;2.40;;
20110;SDS011;10216;42.658;23.248;2023-07-20T09:55:40;8.70;;;2.60;;
20110;SDS011;10216;42.658;23.248;2023-07-20T09:58:09;9.13;;;2.55;;
20110;SDS011;10216;42.658;23.248;2023-07-20T10:00:36;7.72;;;2.30;;
20110;SDS011;10216;42.658;23.248;2023-07-20T10:03:04;6.05;;;2.38;;
20110;SDS011;10216;42.658;23.248;2023-07-20T10:05:33;10.02;;;2.50;;
20110;SDS011;10216;42.658;23.248;2023-07-20T10:08:01;5.32;;;2.30;;
20110;SDS011;10216;42.658;23.248;2023-07-20T10:10:29;9.32;;;2.28;;
20110;SDS011;10216;42.658;23.248;2023-07-20T10:12:57;9.00;;;2.85;;
20110;SDS011;10216;42.658;23.248;2023-07-20T10:15:30;4.63;;;2.17;;
20110;SDS011;10216;42.658;23.248;2023-07-20T10:20:38;6.72;;;2.50;;
20110;SDS011;10216;42.658;23.248;2023-07-20T10:23:06;5.68;;;2.00;;
20110;SDS011;10216;42.658;23.248;2023-07-20T10:25:32;8.15;;;2.70;;
20110;SDS011;10216;42.658;23.248;2023-07-20T10:28:02;9.70;;;2.25;;
20110;SDS011;10216;42.658;23.248;2023-07-20T10:30:30;5.55;;;2.50;;
20110;SDS011;10216;42.658;23.248;2023-07-20T10:32:57;10.75;;;2.53;;
20110;SDS011;10216;42.658;23.248;2023-07-20T10:35:22;8.70;;;2.05;;
20110;SDS011;10216;42.658;23.248;2023-07-20T10:37:52;5.68;;;2.20;;
20110;SDS011;10216;42.658;23.248;2023-07-20T10:40:34;8.15;;;2.10;;
20110;SDS011;10216;42.658;23.248;2023-07-20T10:43:07;8.55;;;2.28;;
20110;SDS011;10216;42.658;23.248;2023-07-20T10:45:39;7.25;;;2.10;;
20110;SDS011;10216;42.658;23.248;2023-07-20T10:48:05;8.55;;;2.53;;
20110;SDS011;10216;42.658;23.248;2023-07-20T10:50:35;6.50;;;2.90;;
20110;SDS011;10216;42.658;23.248;2023-07-20T10:53:10;9.38;;;2.50;;
20110;SDS011;10216;42.658;23.248;2023-07-20T10:55:40;7.70;;;2.58;;
20110;SDS011;10216;42.658;23.248;2023-07-20T10:58:10;7.45;;;2.92;;
20110;SDS011;10216;42.658;23.248;2023-07-20T11:00:37;5.55;;;2.78;;
20110;SDS011;10216;42.658;23.248;2023-07-20T11:03:27;14.13;;;3.15;;
20110;SDS011;10216;42.658;23.248;2023-07-20T11:05:54;9.45;;;3.38;;
20110;SDS011;10216;42.658;23.248;2023-07-20T11:08:37;9.52;;;3.55;;
20110;SDS011;10216;42.658;23.248;2023-07-20T11:13:59;6.25;;;3.80;;
20110;SDS011;10216;42.658;23.248;2023-07-20T11:19:01;7.22;;;3.80;;
20110;SDS011;10216;42.658;23.248;2023-07-20T11:21:28;9.10;;;3.60;;
20110;SDS011;10216;42.658;23.248;2023-07-20T11:23:54;6.57;;;3.92;;
20110;SDS011;10216;42.658;23.248;2023-07-20T11:26:20;7.28;;;4.10;;
20110;SDS011;10216;42.658;23.248;2023-07-20T11:28:49;6.25;;;3.47;;
20110;SDS011;10216;42.658;23.248;2023-07-20T11:31:16;4.47;;;3.50;;
20110;SDS011;10216;42.658;23.248;2023-07-20T11:33:42;9.20;;;4.25;;
20110;SDS011;10216;42.658;23.248;2023-07-20T11:36:10;6.53;;;4.05;;
20110;SDS011;10216;42.658;23.248;2023-07-20T11:38:36;8.23;;;4.13;;
20110;SDS011;10216;42.658;23.248;2023-07-20T11:41:04;6.20;;;3.92;;
20110;SDS011;10216;42.658;23.248;2023-07-20T11:43:29;8.77;;;4.30;;
20110;SDS011;10216;42.658;23.248;2023-07-20T11:45:55;7.50;;;4.07;;
20110;SDS011;10216;42.658;23.248;2023-07-20T11:48:21;7.40;;;3.80;;
20110;SDS011;10216;42.658;23.248;2023-07-20T11:50:46;10.25;;;4.10;;
20110;SDS011;10216;42.658;23.248;2023-07-20T11:53:12;9.57;;;4.07;;
20110;SDS011;10216;42.658;23.248;2023-07-20T11:55:39;5.85;;;3.58;;
20110;SDS011;10216;42.658;23.248;2023-07-20T11:58:06;6.35;;;3.25;;
20110;SDS011;10216;42.658;23.248;2023-07-20T12:00:34;8.27;;;3.90;;
20110;SDS011;10216;42.658;23.248;2023-07-20T12:03:00;6.55;;;3.42;;
20110;SDS011;10216;42.658;23.248;2023-07-20T12:05:26;8.63;;;4.28;;
20110;SDS011;10216;42.658;23.248;2023-07-20T12:07:52;6.07;;;3.17;;
20110;SDS011;10216;42.658;23.248;2023-07-20T12:10:27;11.00;;;3.80;;
20110;SDS011;10216;42.658;23.248;2023-07-20T12:12:53;7.57;;;3.38;;
20110;SDS011;10216;42.658;23.248;2023-07-20T12:17:45;4.60;;;3.25;;
20110;SDS011;10216;42.658;23.248;2023-07-20T12:20:11;8.30;;;3.25;;
20110;SDS011;10216;42.658;23.248;2023-07-20T12:22:38;10.82;;;3.35;;
20110;SDS011;10216;42.658;23.248;2023-07-20T12:25:05;5.28;;;2.78;;
20110;SDS011;10216;42.658;23.248;2023-07-20T12:27:32;8.40;;;3.00;;
20110;SDS011;10216;42.658;23.248;2023-07-20T12:29:57;8.10;;;2.97;;
20110;SDS011;10216;42.658;23.248;2023-07-20T12:32:22;6.30;;;2.80;;
20110;SDS011;10216;42.658;23.248;2023-07-20T12:34:48;6.57;;;3.10;;
20110;SDS011;10216;42.658;23.248;2023-07-20T12:37:13;8.00;;;3.17;;
20110;SDS011;10216;42.658;23.248;2023-07-20T12:39:38;13.32;;;2.83;;
20110;SDS011;10216;42.658;23.248;2023-07-20T12:42:05;7.45;;;2.88;;
20110;SDS011;10216;42.658;23.248;2023-07-20T12:44:31;8.20;;;3.20;;
20110;SDS011;10216;42.658;23.248;2023-07-20T12:46:56;17.77;;;3.67;;
20110;SDS011;10216;42.658;23.248;2023-07-20T12:49:22;9.48;;;3.47;;
20110;SDS011;10216;42.658;23.248;2023-07-20T12:51:47;4.65;;;2.80;;
20110;SDS011;10216;42.658;23.248;2023-07-20T12:54:12;11.10;;;3.47;;
20110;SDS011;10216;42.658;23.248;2023-07-20T12:56:38;5.72;;;2.97;;
20110;SDS011;10216;42.658;23.248;2023-07-20T12:59:03;10.02;;;3.10;;
20110;SDS011;10216;42.658;23.248;2023-07-20T13:01:30;6.00;;;2.72;;
20110;SDS011;10216;42.658;23.248;2023-07-20T13:03:56;7.47;;;3.03;;
20110;SDS011;10216;42.658;23.248;2023-07-20T13:06:22;7.72;;;2.92;;
20110;SDS011;10216;42.658;23.248;2023-07-20T13:08:48;9.02;;;3.50;;
20110;SDS011;10216;42.658;23.248;2023-07-20T13:11:15;10.07;;;2.85;;
20110;SDS011;10216;42.658;23.248;2023-07-20T13:13:41;5.38;;;2.92;;
20110;SDS011;10216;42.658;23.248;2023-07-20T13:16:06;8.35;;;3.28;;
20110;SDS011;10216;42.658;23.248;2023-07-20T13:18:32;17.15;;;3.53;;
20110;SDS011;10216;42.658;23.248;2023-07-20T13:20:57;8.95;;;3.33;;
20110;SDS011;10216;42.658;23.248;2023-07-20T13:23:22;7.55;;;3.00;;
20110;SDS011;10216;42.658;23.248;2023-07-20T13:25:48;9.48;;;3.10;;
20110;SDS011;10216;42.658;23.248;2023-07-20T13:28:13;7.47;;;3.03;;
20110;SDS011;10216;42.658;23.248;2023-07-20T13:30:39;13.75;;;3.50;;
20110;SDS011;10216;42.658;23.248;2023-07-20T13:33:04;16.35;;;2.95;;
20110;SDS011;10216;42.658;23.248;2023-07-20T13:35:29;10.68;;;3.08;;
20110;SDS011;10216;42.658;23.248;2023-07-20T13:37:55;12.07;;;3.03;;
20110;SDS011;10216;42.658;23.248;2023-07-20T13:40:20;8.95;;;3.03;;
20110;SDS011;10216;42.658;23.248;2023-07-20T13:42:47;8.60;;;2.60;;
20110;SDS011;10216;42.658;23.248;2023-07-20T13:45:13;6.53;;;2.70;;
20110;SDS011;10216;42.658;23.248;2023-07-20T13:47:38;9.30;;;3.25;;
20110;SDS011;10216;42.658;23.248;2023-07-20T13:50:04;11.70;;;3.25;;
20110;SDS011;10216;42.658;23.248;2023-07-20T13:52:29;8.98;;;2.70;;
20110;SDS011;10216;42.658;23.248;2023-07-20T13:54:55;7.90;;;2.95;;
20110;SDS011;10216;42.658;23.248;2023-07-20T13:57:20;9.52;;;3.13;;
20110;SDS011;10216;42.658;23.248;2023-07-20T13:59:46;12.10;;;2.67;;
20110;SDS011;10216;42.658;23.248;2023-07-20T14:02:13;8.15;;;2.55;;
20110;SDS011;10216;42.658;23.248;2023-07-20T14:04:40;7.72;;;2.72;;
20110;SDS011;10216;42.658;23.248;2023-07-20T14:07:06;6.88;;;2.38;;
20110;SDS011;10216;42.658;23.248;2023-07-20T14:09:31;9.75;;;2.83;;
20110;SDS011;10216;42.658;23.248;2023-07-20T14:11:57;6.25;;;2.45;;
20110;SDS011;10216;42.658;23.248;2023-07-20T14:14:22;9.35;;;2.40;;
20110;SDS011;10216;42.658;23.248;2023-07-20T14:16:47;9.07;;;2.95;;
20110;SDS011;10216;42.658;23.248;2023-07-20T14:19:13;4.63;;;2.35;;
20110;SDS011;10216;42.658;23.248;2023-07-20T14:21:38;6.88;;;2.50;;
20110;SDS011;10216;42.658;23.248;2023-07-20T14:24:04;9.10;;;2.80;;
20110;SDS011;10216;42.658;23.248;2023-07-20T14:26:29;5.15;;;2.15;;
20110;SDS011;10216;42.658;23.248;2023-07-20T14:28:55;6.63;;;2.67;;
20110;SDS011;10216;42.658;23.248;2023-07-20T14:31:20;6.53;;;2.33;;
20110;SDS011;10216;42.658;23.248;2023-07-20T14:33:45;5.20;;;2.60;;
20110;SDS011;10216;42.658;23.248;2023-07-20T14:36:11;5.72;;;2.25;;
20110;SDS011;10216;42.658;23.248;2023-07-20T14:38:36;6.20;;;2.25;;
20110;SDS011;10216;42.658;23.248;2023-07-20T14:41:02;5.95;;;2.47;;
20110;SDS011;10216;42.658;23.248;2023-07-20T14:43:27;4.93;;;2.35;;
20110;SDS011;10216;42.658;23.248;2023-07-20T14:45:53;6.13;;;2.15;;
20110;SDS011;10216;42.658;23.248;2023-07-20T14:48:19;4.53;;;2.53;;